createdAt,value
2022-08-11T00:02:22.122Z,101803.06
2022-08-11T00:04:53.681Z,101800.63
2022-08-11T00:07:25.565Z,101803.56
2022-08-11T00:09:57.070Z,101805.41
2022-08-11T00:12:28.905Z,101811.06
2022-08-11T00:15:00.446Z,101803.94
2022-08-11T00:17:32.493Z,101804.75
2022-08-11T00:20:12.402Z,101811.19
2022-08-11T00:22:47.688Z,101807.09
2022-08-11T00:25:19.238Z,101802.72
2022-08-11T00:27:51.233Z,101811.53
2022-08-11T00:30:23.183Z,101814.75
2022-08-11T00:32:55.256Z,101811.47
2022-08-11T00:35:55.991Z,101814.13
2022-08-11T00:38:19.334Z,101803.56
2022-08-11T00:40:50.841Z,101811.09
2022-08-11T00:43:22.862Z,101810.78
2022-08-11T00:45:54.356Z,101811.78
2022-08-11T00:48:28.043Z,101809.34
2022-08-11T00:50:59.558Z,101811.16
2022-08-11T00:53:31.801Z,101806.25
2022-08-11T00:56:03.303Z,101811.66
2022-08-11T00:58:34.971Z,101799.94
2022-08-11T01:01:06.630Z,101802.31
2022-08-11T01:03:38.467Z,101806.59
2022-08-11T01:06:11.548Z,101811.44
2022-08-11T01:08:43.431Z,101811.34
2022-08-11T01:11:15.069Z,101810.22
2022-08-11T01:13:47.561Z,101806.69
2022-08-11T01:16:19.055Z,101809.91
2022-08-11T01:18:50.881Z,101818.16
2022-08-11T01:21:22.375Z,101821.91
2022-08-11T01:23:54.243Z,101816.41
2022-08-11T01:26:25.783Z,101816.16
2022-08-11T01:28:57.618Z,101821.22
2022-08-11T01:31:29.153Z,101822.78
2022-08-11T01:34:00.954Z,101827.63
2022-08-11T01:36:32.466Z,101820.00
2022-08-11T01:39:04.342Z,101829.09
2022-08-11T01:41:54.732Z,101828.53
2022-08-11T01:44:38.581Z,101823.84
2022-08-11T01:47:10.082Z,101830.00
2022-08-11T01:50:08.589Z,101828.34
2022-08-11T01:52:35.125Z,101821.00
2022-08-11T01:55:06.871Z,101824.97
2022-08-11T01:57:38.794Z,101823.81
2022-08-11T02:00:11.774Z,101820.31
2022-08-11T02:02:47.982Z,101817.53
2022-08-11T02:05:19.555Z,101828.81
2022-08-11T02:07:51.388Z,101816.84
2022-08-11T02:10:41.773Z,101814.66
2022-08-11T02:13:32.395Z,101817.50
2022-08-11T02:16:07.379Z,101813.16
2022-08-11T02:18:58.160Z,101816.09
2022-08-11T02:21:48.206Z,101813.31
2022-08-11T02:24:20.275Z,101815.56
2022-08-11T02:26:51.809Z,101817.78
2022-08-11T02:29:23.626Z,101814.50
2022-08-11T02:32:28.741Z,101817.91
2022-08-11T02:35:02.385Z,101814.31
2022-08-11T02:37:34.249Z,101808.31
2022-08-11T02:40:05.739Z,101807.72
2022-08-11T02:42:37.578Z,101804.34
2022-08-11T02:45:09.097Z,101802.97
2022-08-11T02:47:40.969Z,101808.03
2022-08-11T02:50:12.452Z,101797.22
2022-08-11T02:52:45.737Z,101800.41
2022-08-11T02:55:55.747Z,101801.44
2022-08-11T02:58:11.479Z,101794.88
2022-08-11T03:00:45.576Z,101790.13
2022-08-11T03:03:17.576Z,101797.88
2022-08-11T03:05:49.160Z,101803.97
2022-08-11T03:08:24.760Z,101807.97
2022-08-11T03:11:15.037Z,101804.69
2022-08-11T03:14:05.427Z,101802.72
2022-08-11T03:16:45.985Z,101805.63
2022-08-11T03:19:17.524Z,101804.25
2022-08-11T03:22:02.906Z,101795.53
2022-08-11T03:24:35.559Z,101805.16
2022-08-11T03:27:07.054Z,101808.09
2022-08-11T03:29:38.899Z,101807.50
2022-08-11T03:32:11.391Z,101805.28
2022-08-11T03:34:42.898Z,101804.22
2022-08-11T03:37:34.750Z,101803.66
2022-08-11T03:40:06.288Z,101801.66
2022-08-11T03:42:38.262Z,101807.06
2022-08-11T03:45:10.300Z,101801.66
2022-08-11T03:47:52.449Z,101809.41
2022-08-11T03:50:27.270Z,101802.38
2022-08-11T03:52:59.004Z,101809.63
2022-08-11T03:55:32.021Z,101811.50
2022-08-11T03:58:03.910Z,101814.22
2022-08-11T04:00:35.408Z,101811.50
2022-08-11T04:03:08.338Z,101805.88
2022-08-11T04:05:39.866Z,101807.75
2022-08-11T04:08:11.379Z,101813.97
2022-08-11T04:10:42.888Z,101803.44
2022-08-11T04:13:14.702Z,101806.72
2022-08-11T04:16:11.486Z,101810.81
2022-08-11T04:18:44.223Z,101805.53
2022-08-11T04:21:16.767Z,101810.69
2022-08-11T04:24:35.439Z,101811.25
2022-08-11T04:26:40.075Z,101818.97
2022-08-11T04:29:11.972Z,101814.78
2022-08-11T04:31:52.382Z,101820.75
2022-08-11T04:34:24.398Z,101816.03
2022-08-11T04:37:15.344Z,101821.53
2022-08-11T04:39:49.264Z,101821.16
2022-08-11T04:42:40.096Z,101823.97
2022-08-11T04:45:11.980Z,101827.38
2022-08-11T04:48:04.615Z,101823.13
2022-08-11T04:51:09.062Z,101822.50
2022-08-11T04:54:06.018Z,101829.53
2022-08-11T04:56:56.728Z,101823.16
2022-08-11T04:59:46.905Z,101825.25
2022-08-11T05:02:18.752Z,101825.69
2022-08-11T05:05:09.022Z,101827.75
2022-08-11T05:07:40.843Z,101822.88
2022-08-11T05:10:12.344Z,101823.59
2022-08-11T05:12:44.224Z,101830.88
2022-08-11T05:15:43.188Z,101823.78
2022-08-11T05:18:34.444Z,101831.81
2022-08-11T05:21:24.563Z,101825.75
2022-08-11T05:24:15.120Z,101824.94
2022-08-11T05:27:07.781Z,101832.41
2022-08-11T05:30:01.667Z,101834.19
2022-08-11T05:32:52.390Z,101836.44
2022-08-11T05:35:59.813Z,101840.50
2022-08-11T05:38:35.946Z,101831.34
2022-08-11T05:41:26.425Z,101829.31
2022-08-11T05:44:20.194Z,101840.25
2022-08-11T05:47:13.110Z,101839.59
2022-08-11T05:50:03.596Z,101673.66
2022-08-11T05:52:55.422Z,101850.66
2022-08-11T05:56:02.441Z,101848.38
2022-08-11T05:58:39.743Z,101851.88
2022-08-11T06:01:13.749Z,101847.16
2022-08-11T06:04:11.738Z,101853.78
2022-08-11T06:06:46.889Z,101853.50
2022-08-11T06:09:18.572Z,101859.31
2022-08-11T06:11:50.468Z,101855.59
2022-08-11T06:14:22.393Z,101845.88
2022-08-11T06:16:53.912Z,101860.31
2022-08-11T06:19:25.430Z,101858.19
2022-08-11T06:21:57.658Z,101858.25
2022-08-11T06:24:29.249Z,101862.09
2022-08-11T06:27:12.227Z,101860.00
2022-08-11T06:29:47.630Z,101864.94
2022-08-11T06:32:20.158Z,101863.56
2022-08-11T06:34:52.883Z,101863.88
2022-08-11T06:37:24.393Z,101864.16
2022-08-11T06:39:55.985Z,101867.97
2022-08-11T06:42:27.959Z,101864.69
2022-08-11T06:44:59.536Z,101867.97
2022-08-11T06:47:31.391Z,101856.00
2022-08-11T06:50:22.078Z,101859.78
2022-08-11T06:52:53.729Z,101856.94
2022-08-11T06:55:56.763Z,101858.09
2022-08-11T06:58:49.063Z,101861.03
2022-08-11T07:01:21.642Z,101859.94
2022-08-11T07:03:54.483Z,101852.00
2022-08-11T07:06:26.552Z,101857.06
2022-08-11T07:09:24.809Z,101855.81
2022-08-11T07:12:15.579Z,101850.84
2022-08-11T07:15:05.596Z,101850.03
2022-08-11T07:17:37.477Z,101849.25
2022-08-11T07:20:28.044Z,101843.94
2022-08-11T07:23:18.142Z,101844.50
2022-08-11T07:26:08.720Z,101841.25
2022-08-11T07:28:55.488Z,101838.25
2022-08-11T07:31:27.283Z,101834.56
2022-08-11T07:34:07.888Z,101831.75
2022-08-11T07:36:42.194Z,101834.66
2022-08-11T07:39:14.945Z,101831.75
2022-08-11T07:41:47.678Z,101830.03
2022-08-11T07:44:19.343Z,101835.31
2022-08-11T07:47:10.100Z,101833.06
2022-08-11T07:50:00.717Z,101832.78
2022-08-11T07:52:35.014Z,101831.41
2022-08-11T07:55:08.507Z,101837.13
2022-08-11T07:58:16.813Z,101836.19
2022-08-11T08:01:21.434Z,101828.97
2022-08-11T08:04:13.380Z,101837.97
2022-08-11T08:07:03.763Z,101831.31
2022-08-11T08:09:54.177Z,101823.38
2022-08-11T08:12:44.364Z,101820.19
2022-08-11T08:15:34.962Z,101824.00
2022-08-11T08:18:09.138Z,101820.69
2022-08-11T08:21:12.412Z,101816.69
2022-08-11T08:23:44.394Z,101813.81
2022-08-11T08:26:36.062Z,101812.28
2022-08-11T08:29:26.637Z,101814.88
2022-08-11T08:31:58.141Z,101816.06
2022-08-11T08:34:32.311Z,101815.34
2022-08-11T08:37:44.909Z,101816.97
2022-08-11T08:39:59.542Z,101811.16
2022-08-11T08:42:31.098Z,101804.69
2022-08-11T08:45:03.015Z,101803.72
2022-08-11T08:47:42.856Z,101809.00
2022-08-11T08:50:16.598Z,101804.19
2022-08-11T08:52:49.122Z,101801.56
2022-08-11T08:55:21.344Z,101802.38
2022-08-11T08:57:52.862Z,101808.03
2022-08-11T09:00:24.737Z,101800.59
2022-08-11T09:02:56.280Z,101798.50
2022-08-11T09:05:28.107Z,101796.38
2022-08-11T09:08:00.018Z,101808.97
2022-08-11T09:10:31.930Z,101799.94
2022-08-11T09:13:03.451Z,101793.41
2022-08-11T09:15:36.517Z,101796.69
2022-08-11T09:18:09.304Z,101802.00
2022-08-11T09:20:41.238Z,101790.19
2022-08-11T09:26:42.069Z,101786.78
2022-08-11T09:29:13.715Z,101792.69
2022-08-11T09:31:45.572Z,101786.72
2022-08-11T09:34:17.160Z,101788.84
2022-08-11T09:37:07.281Z,101788.81
2022-08-11T09:39:58.064Z,101781.94
2022-08-11T09:42:49.633Z,101780.41
2022-08-11T09:45:21.525Z,101774.44
2022-08-11T09:47:53.046Z,101771.53
2022-08-11T09:50:24.979Z,101766.28
2022-08-11T09:53:34.890Z,101762.50
2022-08-11T09:55:48.386Z,101771.72
2022-08-11T09:58:43.202Z,101760.16
2022-08-11T10:01:27.646Z,101755.44
2022-08-11T10:04:00.786Z,101759.53
2022-08-11T10:06:54.456Z,101750.88
2022-08-11T10:09:27.231Z,101755.94
2022-08-11T10:11:58.950Z,101753.19
2022-08-11T10:14:49.487Z,101745.69
2022-08-11T10:17:21.110Z,101742.56
2022-08-11T10:20:04.732Z,101741.69
2022-08-11T10:22:56.299Z,101741.41
2022-08-11T10:25:47.057Z,101736.75
2022-08-11T10:28:33.492Z,101738.16
2022-08-11T10:31:27.521Z,101733.50
2022-08-11T10:34:10.908Z,101730.78
2022-08-11T10:36:50.141Z,101726.84
2022-08-11T10:39:22.259Z,101728.06
2022-08-11T10:42:21.045Z,101725.72
2022-08-11T10:45:02.446Z,101721.19
2022-08-11T10:47:36.832Z,101718.28
2022-08-11T10:50:27.710Z,101716.31
2022-08-11T10:53:17.981Z,101710.94
2022-08-11T10:56:08.495Z,101705.75
2022-08-11T10:58:52.323Z,101699.97
2022-08-11T11:01:36.750Z,101703.22
2022-08-11T11:04:12.419Z,101701.50
2022-08-11T11:06:44.932Z,101693.56
2022-08-11T11:09:17.121Z,101692.91
2022-08-11T11:12:07.569Z,101689.72
2022-08-11T11:14:59.285Z,101672.66
2022-08-11T11:17:49.774Z,101692.03
2022-08-11T11:20:36.277Z,101686.41
2022-08-11T11:23:10.530Z,101681.78
2022-08-11T11:25:42.091Z,101682.66
2022-08-11T11:28:14.089Z,101678.28
2022-08-11T11:30:45.664Z,101683.56
2022-08-11T11:33:17.587Z,101678.69
2022-08-11T11:35:49.492Z,101671.25
2022-08-11T11:38:21.581Z,101680.56
2022-08-11T11:41:13.180Z,101675.91
2022-08-11T11:43:46.417Z,101674.63
2022-08-11T11:46:18.142Z,101678.06
2022-08-11T11:48:50.079Z,101675.72
2022-08-11T11:51:21.785Z,101659.19
2022-08-11T11:53:53.905Z,101659.94
2022-08-11T11:56:25.468Z,101658.41
2022-08-11T11:59:16.373Z,101653.06
2022-08-11T12:01:50.393Z,101656.78
2022-08-11T12:04:25.576Z,101648.41
2022-08-11T12:07:17.085Z,101650.78
2022-08-11T12:09:48.955Z,101653.41
2022-08-11T12:12:39.481Z,101648.31
2022-08-11T12:15:11.139Z,101640.28
2022-08-11T12:17:43.110Z,101638.19
2022-08-11T12:20:31.849Z,101636.06
2022-08-11T12:23:24.897Z,101625.81
2022-08-11T12:26:26.889Z,101629.00
2022-08-11T12:29:00.173Z,101622.50
2022-08-11T12:31:31.681Z,101627.84
2022-08-11T12:34:03.785Z,101619.38
2022-08-11T12:36:35.318Z,101613.44
2022-08-11T12:39:23.172Z,101611.13
2022-08-11T12:42:14.813Z,101611.81
2022-08-11T12:45:07.043Z,101614.28
2022-08-11T12:48:57.639Z,101606.28
2022-08-11T12:51:22.747Z,101608.03
2022-08-11T12:53:55.584Z,101604.59
2022-08-11T12:56:45.913Z,101594.41
2022-08-11T12:59:36.277Z,101593.50
2022-08-11T13:02:26.758Z,101597.59
2022-08-11T13:05:02.040Z,101591.28
2022-08-11T13:07:50.450Z,101485.06
2022-08-11T13:10:41.818Z,101581.06
2022-08-11T13:13:54.542Z,101578.97
2022-08-11T13:16:06.270Z,101575.47
2022-08-11T13:18:37.810Z,101570.44
2022-08-11T13:21:09.319Z,101575.03
2022-08-11T13:23:41.125Z,101569.75
2022-08-11T13:26:43.468Z,101564.13
2022-08-11T13:29:20.321Z,101557.66
2022-08-11T13:31:51.892Z,101556.00
2022-08-11T13:34:23.815Z,101557.13
2022-08-11T13:36:55.719Z,101560.69
2022-08-11T13:39:27.301Z,101562.03
2022-08-11T13:41:59.767Z,101542.66
2022-08-11T13:44:31.375Z,101546.22
2022-08-11T13:47:04.577Z,101543.78
2022-08-11T13:49:37.034Z,101539.38
2022-08-11T13:52:13.266Z,101538.13
2022-08-11T13:54:44.853Z,101534.19
2022-08-11T13:58:07.735Z,101476.78
2022-08-11T14:00:23.803Z,101538.56
2022-08-11T14:02:59.773Z,101529.16
2022-08-11T14:05:31.354Z,101536.19
2022-08-11T14:08:02.922Z,101529.47
2022-08-11T14:10:34.476Z,101527.13
2022-08-11T14:13:42.736Z,101536.38
2022-08-11T14:16:19.704Z,101518.59
2022-08-11T14:18:51.549Z,101520.97
2022-08-11T14:21:42.418Z,101519.09
2022-08-11T14:24:13.968Z,101522.56
2022-08-11T14:26:45.892Z,101515.44
2022-08-11T14:29:17.525Z,101512.19
2022-08-11T14:31:49.571Z,101506.47
2022-08-11T14:34:21.542Z,101510.81
2022-08-11T14:36:53.183Z,101504.88
2022-08-11T14:39:24.817Z,101508.50
2022-08-11T14:42:15.889Z,101503.50
2022-08-11T14:45:05.958Z,101502.78
2022-08-11T14:47:37.807Z,101509.31
2022-08-11T14:50:12.166Z,101501.75
2022-08-11T14:52:45.401Z,101502.84
2022-08-11T14:55:35.835Z,101500.56
2022-08-11T14:58:07.793Z,101501.06
2022-08-11T15:00:39.861Z,101494.63
2022-08-11T15:03:11.917Z,101497.47
2022-08-11T15:05:55.747Z,101478.50
2022-08-11T15:08:47.079Z,101485.75
2022-08-11T15:11:37.697Z,101480.94
2022-08-11T15:14:09.260Z,101470.75
2022-08-11T15:16:59.879Z,101484.97
2022-08-11T15:19:40.249Z,101485.13
2022-08-11T15:22:31.567Z,101481.53
2022-08-11T15:25:03.062Z,101481.22
2022-08-11T15:27:53.847Z,101470.88
2022-08-11T15:30:44.311Z,101474.78
2022-08-11T15:33:34.537Z,101472.56
2022-08-11T15:36:24.636Z,101475.00
2022-08-11T15:38:56.183Z,101469.16
2022-08-11T15:41:58.576Z,101469.00
2022-08-11T15:45:05.102Z,101468.50
2022-08-11T15:47:37.770Z,101464.84
2022-08-11T15:50:13.648Z,101467.28
2022-08-11T15:52:45.587Z,101461.59
2022-08-11T15:55:17.730Z,101465.88
2022-08-11T15:58:07.961Z,101462.50
2022-08-11T16:01:03.648Z,101454.50
2022-08-11T16:04:08.987Z,101458.28
2022-08-11T16:06:47.730Z,101455.53
2022-08-11T16:09:21.197Z,101452.69
2022-08-11T16:11:54.335Z,101450.53
2022-08-11T16:14:44.815Z,101446.25
2022-08-11T16:17:17.828Z,101446.41
2022-08-11T16:19:49.795Z,101449.88
2022-08-11T16:22:21.635Z,101447.28
2022-08-11T16:27:02.258Z,101444.75
2022-08-11T16:27:45.162Z,101449.34
2022-08-11T16:30:17.227Z,101446.66
2022-08-11T16:32:52.044Z,101449.88
2022-08-11T16:35:42.589Z,101450.13
2022-08-11T16:38:33.055Z,101443.84
2022-08-11T16:41:10.936Z,101447.59
2022-08-11T16:44:01.856Z,101448.66
2022-08-11T16:46:52.366Z,101444.84
2022-08-11T16:49:27.830Z,101452.06
2022-08-11T16:52:04.287Z,101451.34
2022-08-11T16:54:35.840Z,101448.03
2022-08-11T16:57:26.785Z,101448.38
2022-08-11T16:59:58.299Z,101445.63
2022-08-11T17:02:48.429Z,101432.91
2022-08-11T17:05:54.121Z,101439.16
2022-08-11T17:08:49.851Z,101447.97
2022-08-11T17:11:48.564Z,101435.78
2022-08-11T17:14:35.335Z,101442.84
2022-08-11T17:17:07.788Z,101444.13
2022-08-11T17:20:41.115Z,101445.13
2022-08-11T17:22:49.928Z,101442.75
2022-08-11T17:25:21.790Z,101272.66
2022-08-11T17:27:53.317Z,101452.00
2022-08-11T17:30:44.812Z,101452.00
2022-08-11T17:33:34.965Z,101457.81
2022-08-11T17:36:06.964Z,101455.72
2022-08-11T17:38:38.525Z,101446.84
2022-08-11T17:41:29.229Z,101456.38
2022-08-11T17:44:19.540Z,101452.00
2022-08-11T17:47:09.915Z,101453.31
2022-08-11T17:49:41.426Z,101453.06
2022-08-11T17:52:35.387Z,101447.75
2022-08-11T17:55:52.243Z,101449.50
2022-08-11T17:58:35.979Z,101452.09
2022-08-11T18:01:09.437Z,101453.78
2022-08-11T18:03:41.478Z,101454.88
2022-08-11T18:06:13.388Z,101448.22
2022-08-11T18:09:03.625Z,101457.50
2022-08-11T18:12:07.364Z,101465.06
2022-08-11T18:15:02.818Z,101464.50
2022-08-11T18:17:52.929Z,101468.47
2022-08-11T18:20:43.371Z,101462.56
2022-08-11T18:23:45.713Z,101467.34
2022-08-11T18:26:37.647Z,101472.25
2022-08-11T18:29:27.688Z,101475.22
2022-08-11T18:32:21.901Z,101480.75
2022-08-11T18:35:15.388Z,101478.25
2022-08-11T18:38:05.586Z,101486.66
2022-08-11T18:40:56.314Z,101480.41
2022-08-11T18:43:46.645Z,101482.53
2022-08-11T18:46:37.200Z,101489.84
2022-08-11T18:49:27.469Z,101494.69
2022-08-11T18:52:38.036Z,101491.66
2022-08-11T18:55:29.585Z,101485.28
2022-08-11T18:58:19.994Z,101494.75
2022-08-11T19:01:10.518Z,101488.66
2022-08-11T19:04:10.417Z,101492.91
2022-08-11T19:07:02.753Z,101496.34
2022-08-11T19:09:53.123Z,101498.63
2022-08-11T19:12:44.911Z,101500.41
2022-08-11T19:15:35.683Z,101507.38
2022-08-11T19:18:25.895Z,101334.78
2022-08-11T19:21:16.592Z,101510.56
2022-08-11T19:24:06.779Z,101510.91
2022-08-11T19:26:56.915Z,101507.72
2022-08-11T19:30:04.865Z,101508.41
2022-08-11T19:32:57.517Z,101509.38
2022-08-11T19:35:47.893Z,101508.72
2022-08-11T19:38:38.312Z,101500.84
2022-08-11T19:41:56.783Z,101509.66
2022-08-11T19:44:38.695Z,101503.75
2022-08-11T19:47:29.149Z,101495.34
2022-08-11T19:50:24.230Z,101503.91
2022-08-11T19:53:17.674Z,101500.09
2022-08-11T19:56:08.333Z,101493.09
2022-08-11T19:58:58.462Z,101498.06
2022-08-11T20:02:01.248Z,101501.97
2022-08-11T20:04:59.357Z,101504.75
2022-08-11T20:07:49.589Z,101499.97
2022-08-11T20:10:39.760Z,101506.81
2022-08-11T20:13:29.874Z,101511.50
2022-08-11T20:16:20.505Z,101505.31
2022-08-11T20:19:10.695Z,101511.28
2022-08-11T20:22:02.650Z,101509.97
2022-08-11T20:24:56.574Z,101513.03
2022-08-11T20:27:46.965Z,101509.56
2022-08-11T20:30:37.545Z,101519.41
2022-08-11T20:33:27.687Z,101515.88
2022-08-11T20:36:17.824Z,101524.38
2022-08-11T20:39:08.128Z,101523.59
2022-08-11T20:41:59.670Z,101525.84
2022-08-11T20:44:50.430Z,101524.56
2022-08-11T20:47:59.882Z,101527.03
2022-08-11T20:50:50.997Z,101532.00
2022-08-11T20:53:42.691Z,101530.16
2022-08-11T20:56:33.251Z,101536.69
2022-08-11T20:59:24.111Z,101534.00
2022-08-11T21:02:15.812Z,101548.72
2022-08-11T21:05:06.806Z,101544.41
2022-08-11T21:11:07.539Z,101551.81
2022-08-11T21:13:58.594Z,101548.03
2022-08-11T21:16:49.963Z,101549.97
2022-08-11T21:19:54.641Z,101549.72
2022-08-11T21:22:59.047Z,101556.00
2022-08-11T21:25:59.250Z,101558.22
2022-08-11T21:28:50.373Z,101555.50
2022-08-11T21:31:47.422Z,101557.97
2022-08-11T21:34:39.211Z,101559.34
2022-08-11T21:37:30.900Z,101564.25
2022-08-11T21:40:21.949Z,101559.41
2022-08-11T21:43:15.399Z,101560.78
2022-08-11T21:46:05.531Z,101564.03
2022-08-11T21:48:55.930Z,101569.22
2022-08-11T21:51:45.995Z,101567.03
2022-08-11T21:54:36.463Z,101563.53
2022-08-11T21:57:26.524Z,101566.00
2022-08-11T22:00:17.199Z,101566.28
2022-08-11T22:03:09.466Z,101559.50
2022-08-11T22:06:00.131Z,101568.44
2022-08-11T22:08:50.571Z,101565.72
2022-08-11T22:11:43.094Z,101569.53
2022-08-11T22:14:33.523Z,101566.53
2022-08-11T22:17:23.590Z,101561.66
2022-08-11T22:20:13.997Z,101570.88
2022-08-11T22:23:04.496Z,101565.69
2022-08-11T22:25:58.697Z,101564.03
2022-08-11T22:28:52.752Z,101562.41
2022-08-11T22:31:42.802Z,101555.91
2022-08-11T22:34:33.080Z,101559.16
2022-08-11T22:37:30.760Z,101568.09
2022-08-11T22:40:21.185Z,101565.38
2022-08-11T22:43:11.738Z,101567.22
2022-08-11T22:46:01.881Z,101566.13
2022-08-11T22:48:52.584Z,101573.19
2022-08-11T22:51:42.845Z,101565.59
2022-08-11T22:54:33.334Z,101566.09
2022-08-11T22:57:23.475Z,101570.44
2022-08-11T23:00:13.987Z,101572.56
2022-08-11T23:03:04.481Z,101569.59
2022-08-11T23:05:54.669Z,101567.63
2022-08-11T23:08:45.262Z,101577.06
2022-08-11T23:12:07.398Z,101575.69
2022-08-11T23:14:46.517Z,101575.13
2022-08-11T23:17:36.872Z,101574.56
2022-08-11T23:20:28.792Z,101578.88
2022-08-11T23:23:29.914Z,101562.81
2022-08-11T23:26:20.045Z,101577.97
2022-08-11T23:29:10.710Z,101581.75
2022-08-11T23:32:00.982Z,101584.69
2022-08-11T23:35:37.309Z,101581.97
2022-08-11T23:38:01.939Z,101576.53
2022-08-11T23:40:51.953Z,101581.41
2022-08-11T23:43:42.644Z,101581.66
2022-08-11T23:46:32.890Z,101580.81
2022-08-11T23:49:23.374Z,101582.16
2022-08-11T23:52:13.642Z,101577.78
2022-08-11T23:55:04.161Z,101583.13
2022-08-11T23:57:54.657Z,101581.47
